Bessemer City, North Carolina
Current Conditions -  °F | °C
As of 4:54 PM on Tuesday 25 Nov 2014 (Local Time) from KAKH Reporting Station
Broken Clouds Broken Clouds  
Wind Chill: 57°   Ceiling: 12000
Heat Index: 57°   Visibility: 10mi
Dew Point: 39°   Wind: 5mph
Humidity: 51%   Direction: 60°ENE
Pressure: 30.03"   Gusts: NA
Location:  35.28°N, 81.28°W
Report Text: KAKH 252154Z AUTO 06004KT 10SM BKN120 14/04 A3003 RMK AO2 SLP166 T01390039
Loading
Personal Weather Stations






























Interactive Weather Map New forecast layout! Learn more

10-Day Weather Forecast

Advertisements
Track Severe Weather on mobile